sensor_id;sensor_type;location;lat;lon;timestamp;temperature;humidity
8953;DHT22;4511;50.890;8.054;2022-12-22T00:00:14;8.00;99.90
8953;DHT22;4511;50.890;8.054;2022-12-22T00:02:59;8.10;99.90
8953;DHT22;4511;50.890;8.054;2022-12-22T00:05:43;8.10;99.90
8953;DHT22;4511;50.890;8.054;2022-12-22T00:08:27;8.10;99.90
8953;DHT22;4511;50.890;8.054;2022-12-22T00:11:11;8.10;99.90
8953;DHT22;4511;50.890;8.054;2022-12-22T00:13:57;8.10;99.90
8953;DHT22;4511;50.890;8.054;2022-12-22T00:16:41;8.10;99.90
8953;DHT22;4511;50.890;8.054;2022-12-22T00:19:26;8.10;99.90
8953;DHT22;4511;50.890;8.054;2022-12-22T00:22:11;8.20;99.90
8953;DHT22;4511;50.890;8.054;2022-12-22T00:24:55;8.20;99.90
8953;DHT22;4511;50.890;8.054;2022-12-22T00:27:39;8.30;99.90
8953;DHT22;4511;50.890;8.054;2022-12-22T00:30:25;8.30;99.90
8953;DHT22;4511;50.890;8.054;2022-12-22T00:33:09;8.30;99.90
8953;DHT22;4511;50.890;8.054;2022-12-22T00:35:54;8.30;99.90
8953;DHT22;4511;50.890;8.054;2022-12-22T00:38:38;8.30;99.90
8953;DHT22;4511;50.890;8.054;2022-12-22T00:41:23;8.30;99.90
8953;DHT22;4511;50.890;8.054;2022-12-22T00:44:07;8.30;99.90
8953;DHT22;4511;50.890;8.054;2022-12-22T00:46:52;8.30;99.90
8953;DHT22;4511;50.890;8.054;2022-12-22T00:49:37;8.30;99.90
8953;DHT22;4511;50.890;8.054;2022-12-22T00:52:22;8.30;99.90
8953;DHT22;4511;50.890;8.054;2022-12-22T00:55:11;8.30;99.90
8953;DHT22;4511;50.890;8.054;2022-12-22T00:57:56;8.30;99.90
8953;DHT22;4511;50.890;8.054;2022-12-22T01:00:40;8.30;99.90
8953;DHT22;4511;50.890;8.054;2022-12-22T01:03:25;8.30;99.90
8953;DHT22;4511;50.890;8.054;2022-12-22T01:06:10;8.30;99.90
8953;DHT22;4511;50.890;8.054;2022-12-22T01:08:54;8.30;99.90
8953;DHT22;4511;50.890;8.054;2022-12-22T01:11:38;8.30;99.90
8953;DHT22;4511;50.890;8.054;2022-12-22T01:14:22;8.30;99.90
8953;DHT22;4511;50.890;8.054;2022-12-22T01:17:08;8.30;99.90
8953;DHT22;4511;50.890;8.054;2022-12-22T01:19:53;8.30;99.90
8953;DHT22;4511;50.890;8.054;2022-12-22T01:22:37;8.30;99.90
8953;DHT22;4511;50.890;8.054;2022-12-22T01:25:22;8.30;99.90
8953;DHT22;4511;50.890;8.054;2022-12-22T01:28:08;8.30;99.90
8953;DHT22;4511;50.890;8.054;2022-12-22T01:30:56;8.40;99.90
8953;DHT22;4511;50.890;8.054;2022-12-22T01:33:40;8.40;99.90
8953;DHT22;4511;50.890;8.054;2022-12-22T01:36:26;8.40;99.90
8953;DHT22;4511;50.890;8.054;2022-12-22T01:39:10;8.40;99.90
8953;DHT22;4511;50.890;8.054;2022-12-22T01:41:54;8.40;99.90
8953;DHT22;4511;50.890;8.054;2022-12-22T01:44:38;8.40;99.90
8953;DHT22;4511;50.890;8.054;2022-12-22T01:47:32;8.40;99.90
8953;DHT22;4511;50.890;8.054;2022-12-22T01:50:18;8.40;99.90
8953;DHT22;4511;50.890;8.054;2022-12-22T01:53:06;8.50;99.90
8953;DHT22;4511;50.890;8.054;2022-12-22T01:55:51;8.50;99.90
8953;DHT22;4511;50.890;8.054;2022-12-22T01:58:37;8.50;99.90
8953;DHT22;4511;50.890;8.054;2022-12-22T02:01:23;8.50;99.90
8953;DHT22;4511;50.890;8.054;2022-12-22T02:04:07;8.50;99.90
8953;DHT22;4511;50.890;8.054;2022-12-22T02:06:51;8.50;99.90
8953;DHT22;4511;50.890;8.054;2022-12-22T02:09:39;8.50;99.90
8953;DHT22;4511;50.890;8.054;2022-12-22T02:12:27;8.50;99.90
8953;DHT22;4511;50.890;8.054;2022-12-22T02:15:15;8.60;99.90
8953;DHT22;4511;50.890;8.054;2022-12-22T02:18:02;8.60;99.90
8953;DHT22;4511;50.890;8.054;2022-12-22T02:20:50;8.60;99.90
8953;DHT22;4511;50.890;8.054;2022-12-22T02:23:38;8.60;99.90
8953;DHT22;4511;50.890;8.054;2022-12-22T02:26:26;8.60;99.90
8953;DHT22;4511;50.890;8.054;2022-12-22T02:29:11;8.70;99.90
8953;DHT22;4511;50.890;8.054;2022-12-22T02:31:55;8.60;99.90
8953;DHT22;4511;50.890;8.054;2022-12-22T02:34:39;8.70;99.90
8953;DHT22;4511;50.890;8.054;2022-12-22T02:37:24;8.60;99.90
8953;DHT22;4511;50.890;8.054;2022-12-22T02:40:13;8.70;99.90
8953;DHT22;4511;50.890;8.054;2022-12-22T02:43:03;8.70;99.90
8953;DHT22;4511;50.890;8.054;2022-12-22T02:45:52;8.70;99.90
8953;DHT22;4511;50.890;8.054;2022-12-22T02:48:39;8.70;99.90
8953;DHT22;4511;50.890;8.054;2022-12-22T02:51:24;8.70;99.90
8953;DHT22;4511;50.890;8.054;2022-12-22T02:54:09;8.70;99.90
8953;DHT22;4511;50.890;8.054;2022-12-22T02:56:54;8.70;99.90
8953;DHT22;4511;50.890;8.054;2022-12-22T02:59:40;8.70;99.90
8953;DHT22;4511;50.890;8.054;2022-12-22T03:02:23;8.70;99.90
8953;DHT22;4511;50.890;8.054;2022-12-22T03:05:08;8.70;99.90
8953;DHT22;4511;50.890;8.054;2022-12-22T03:07:52;8.70;99.90
8953;DHT22;4511;50.890;8.054;2022-12-22T03:10:36;8.70;99.90
8953;DHT22;4511;50.890;8.054;2022-12-22T03:13:20;8.70;99.90
8953;DHT22;4511;50.890;8.054;2022-12-22T03:16:06;8.70;99.90
8953;DHT22;4511;50.890;8.054;2022-12-22T03:18:50;8.70;99.90
8953;DHT22;4511;50.890;8.054;2022-12-22T03:21:34;8.70;99.90
8953;DHT22;4511;50.890;8.054;2022-12-22T03:24:18;8.70;99.90
8953;DHT22;4511;50.890;8.054;2022-12-22T03:27:02;8.70;99.90
8953;DHT22;4511;50.890;8.054;2022-12-22T03:29:29;8.70;99.90
8953;DHT22;4511;50.890;8.054;2022-12-22T03:31:57;8.70;99.90
8953;DHT22;4511;50.890;8.054;2022-12-22T03:34:24;8.70;99.90
8953;DHT22;4511;50.890;8.054;2022-12-22T03:36:50;8.60;99.90
8953;DHT22;4511;50.890;8.054;2022-12-22T03:39:17;8.60;99.90
8953;DHT22;4511;50.890;8.054;2022-12-22T03:41:43;8.60;99.90
8953;DHT22;4511;50.890;8.054;2022-12-22T03:44:27;8.60;99.90
8953;DHT22;4511;50.890;8.054;2022-12-22T03:47:13;8.60;99.90
8953;DHT22;4511;50.890;8.054;2022-12-22T03:49:39;8.60;99.90
8953;DHT22;4511;50.890;8.054;2022-12-22T03:52:06;8.60;99.90
8953;DHT22;4511;50.890;8.054;2022-12-22T03:54:33;8.60;99.90
8953;DHT22;4511;50.890;8.054;2022-12-22T03:56:59;8.70;99.90
8953;DHT22;4511;50.890;8.054;2022-12-22T03:59:26;8.70;99.90
8953;DHT22;4511;50.890;8.054;2022-12-22T04:01:52;8.70;99.90
8953;DHT22;4511;50.890;8.054;2022-12-22T04:04:22;8.60;99.90
8953;DHT22;4511;50.890;8.054;2022-12-22T04:06:49;8.70;99.90
8953;DHT22;4511;50.890;8.054;2022-12-22T04:09:15;8.70;99.90
8953;DHT22;4511;50.890;8.054;2022-12-22T04:11:42;8.70;99.90
8953;DHT22;4511;50.890;8.054;2022-12-22T04:14:26;8.60;99.90
8953;DHT22;4511;50.890;8.054;2022-12-22T04:16:53;8.60;99.90
8953;DHT22;4511;50.890;8.054;2022-12-22T04:19:21;8.60;99.90
8953;DHT22;4511;50.890;8.054;2022-12-22T04:21:49;8.60;99.90
8953;DHT22;4511;50.890;8.054;2022-12-22T04:24:16;8.60;99.90
8953;DHT22;4511;50.890;8.054;2022-12-22T04:26:42;8.60;99.90
8953;DHT22;4511;50.890;8.054;2022-12-22T04:29:09;8.60;99.90
8953;DHT22;4511;50.890;8.054;2022-12-22T04:31:35;8.60;99.90
8953;DHT22;4511;50.890;8.054;2022-12-22T04:34:02;8.60;99.90
8953;DHT22;4511;50.890;8.054;2022-12-22T04:36:30;8.60;99.90
8953;DHT22;4511;50.890;8.054;2022-12-22T04:38:57;8.50;99.90
8953;DHT22;4511;50.890;8.054;2022-12-22T04:41:23;8.50;99.90
8953;DHT22;4511;50.890;8.054;2022-12-22T04:43:50;8.50;99.90
8953;DHT22;4511;50.890;8.054;2022-12-22T04:46:16;8.50;99.90
8953;DHT22;4511;50.890;8.054;2022-12-22T04:48:43;8.50;99.90
8953;DHT22;4511;50.890;8.054;2022-12-22T04:51:10;8.50;99.90
8953;DHT22;4511;50.890;8.054;2022-12-22T04:53:38;8.50;99.90
8953;DHT22;4511;50.890;8.054;2022-12-22T04:56:05;8.50;99.90
8953;DHT22;4511;50.890;8.054;2022-12-22T04:58:32;8.50;99.90
8953;DHT22;4511;50.890;8.054;2022-12-22T05:01:06;8.50;99.90
8953;DHT22;4511;50.890;8.054;2022-12-22T05:03:33;8.50;99.90
8953;DHT22;4511;50.890;8.054;2022-12-22T05:05:59;8.50;99.90
8953;DHT22;4511;50.890;8.054;2022-12-22T05:08:26;8.60;99.90
8953;DHT22;4511;50.890;8.054;2022-12-22T05:10:54;8.60;99.90
8953;DHT22;4511;50.890;8.054;2022-12-22T05:13:20;8.60;99.90
8953;DHT22;4511;50.890;8.054;2022-12-22T05:15:47;8.60;99.90
8953;DHT22;4511;50.890;8.054;2022-12-22T05:18:13;8.60;99.90
8953;DHT22;4511;50.890;8.054;2022-12-22T05:20:40;8.60;99.90
8953;DHT22;4511;50.890;8.054;2022-12-22T05:23:06;8.80;99.90
8953;DHT22;4511;50.890;8.054;2022-12-22T05:25:33;8.70;99.90
8953;DHT22;4511;50.890;8.054;2022-12-22T05:28:01;8.70;99.90
8953;DHT22;4511;50.890;8.054;2022-12-22T05:30:28;8.80;99.90
8953;DHT22;4511;50.890;8.054;2022-12-22T05:32:54;8.90;99.90
8953;DHT22;4511;50.890;8.054;2022-12-22T05:35:21;8.90;99.90
8953;DHT22;4511;50.890;8.054;2022-12-22T05:37:48;9.00;99.90
8953;DHT22;4511;50.890;8.054;2022-12-22T05:40:14;9.00;99.90
8953;DHT22;4511;50.890;8.054;2022-12-22T05:42:41;9.00;99.90
8953;DHT22;4511;50.890;8.054;2022-12-22T05:45:12;9.10;99.90
8953;DHT22;4511;50.890;8.054;2022-12-22T05:47:40;9.20;99.90
8953;DHT22;4511;50.890;8.054;2022-12-22T05:50:07;9.20;99.90
8953;DHT22;4511;50.890;8.054;2022-12-22T05:52:34;8.70;99.90
8953;DHT22;4511;50.890;8.054;2022-12-22T05:55:01;8.60;99.90
8953;DHT22;4511;50.890;8.054;2022-12-22T05:57:27;8.60;99.90
8953;DHT22;4511;50.890;8.054;2022-12-22T05:59:54;8.80;99.90
8953;DHT22;4511;50.890;8.054;2022-12-22T06:02:22;8.90;99.90
8953;DHT22;4511;50.890;8.054;2022-12-22T06:04:48;8.90;99.90
8953;DHT22;4511;50.890;8.054;2022-12-22T06:07:15;9.00;99.90
8953;DHT22;4511;50.890;8.054;2022-12-22T06:09:42;9.10;99.90
8953;DHT22;4511;50.890;8.054;2022-12-22T06:12:08;9.10;99.90
8953;DHT22;4511;50.890;8.054;2022-12-22T06:14:35;9.10;99.90
8953;DHT22;4511;50.890;8.054;2022-12-22T06:17:01;9.20;99.90
8953;DHT22;4511;50.890;8.054;2022-12-22T06:19:29;9.10;99.90
8953;DHT22;4511;50.890;8.054;2022-12-22T06:21:56;9.20;99.90
8953;DHT22;4511;50.890;8.054;2022-12-22T06:24:23;9.20;99.90
8953;DHT22;4511;50.890;8.054;2022-12-22T06:26:49;9.10;99.90
8953;DHT22;4511;50.890;8.054;2022-12-22T06:29:16;9.20;99.90
8953;DHT22;4511;50.890;8.054;2022-12-22T06:31:43;9.20;99.90
8953;DHT22;4511;50.890;8.054;2022-12-22T06:34:09;9.20;99.90
8953;DHT22;4511;50.890;8.054;2022-12-22T06:36:37;9.20;99.90
8953;DHT22;4511;50.890;8.054;2022-12-22T06:39:04;9.20;99.90
8953;DHT22;4511;50.890;8.054;2022-12-22T06:41:31;9.20;99.90
8953;DHT22;4511;50.890;8.054;2022-12-22T06:44:15;9.20;99.90
8953;DHT22;4511;50.890;8.054;2022-12-22T06:46:41;9.20;99.90
8953;DHT22;4511;50.890;8.054;2022-12-22T06:49:08;9.20;99.90
8953;DHT22;4511;50.890;8.054;2022-12-22T06:51:35;9.20;99.90
8953;DHT22;4511;50.890;8.054;2022-12-22T06:54:03;9.30;99.90
8953;DHT22;4511;50.890;8.054;2022-12-22T06:56:29;9.30;99.90
8953;DHT22;4511;50.890;8.054;2022-12-22T06:58:56;9.30;99.90
8953;DHT22;4511;50.890;8.054;2022-12-22T07:01:23;9.30;99.90
8953;DHT22;4511;50.890;8.054;2022-12-22T07:03:49;9.30;99.90
8953;DHT22;4511;50.890;8.054;2022-12-22T07:06:16;9.30;99.90
8953;DHT22;4511;50.890;8.054;2022-12-22T07:08:43;9.30;99.90
8953;DHT22;4511;50.890;8.054;2022-12-22T07:11:11;9.40;99.90
8953;DHT22;4511;50.890;8.054;2022-12-22T07:13:38;9.40;99.90
8953;DHT22;4511;50.890;8.054;2022-12-22T07:16:06;9.40;99.90
8953;DHT22;4511;50.890;8.054;2022-12-22T07:18:33;9.40;99.90
8953;DHT22;4511;50.890;8.054;2022-12-22T07:21:01;9.30;99.90
8953;DHT22;4511;50.890;8.054;2022-12-22T07:23:28;9.30;99.90
8953;DHT22;4511;50.890;8.054;2022-12-22T07:25:54;9.30;99.90
8953;DHT22;4511;50.890;8.054;2022-12-22T07:28:22;9.30;99.90
8953;DHT22;4511;50.890;8.054;2022-12-22T07:30:49;9.30;99.90
8953;DHT22;4511;50.890;8.054;2022-12-22T07:33:16;9.30;99.90
8953;DHT22;4511;50.890;8.054;2022-12-22T07:35:43;9.30;99.90
8953;DHT22;4511;50.890;8.054;2022-12-22T07:38:09;9.30;99.90
8953;DHT22;4511;50.890;8.054;2022-12-22T07:40:36;9.30;99.90
8953;DHT22;4511;50.890;8.054;2022-12-22T07:43:02;9.40;99.90
8953;DHT22;4511;50.890;8.054;2022-12-22T07:45:29;9.30;99.90
8953;DHT22;4511;50.890;8.054;2022-12-22T07:47:58;9.30;99.90
8953;DHT22;4511;50.890;8.054;2022-12-22T07:50:25;9.30;99.90
8953;DHT22;4511;50.890;8.054;2022-12-22T07:52:52;9.30;99.90
8953;DHT22;4511;50.890;8.054;2022-12-22T07:55:19;9.30;99.90
8953;DHT22;4511;50.890;8.054;2022-12-22T07:57:45;9.30;99.90
8953;DHT22;4511;50.890;8.054;2022-12-22T08:00:12;9.20;99.90
8953;DHT22;4511;50.890;8.054;2022-12-22T08:02:40;9.20;99.90
8953;DHT22;4511;50.890;8.054;2022-12-22T08:05:09;9.20;99.90
8953;DHT22;4511;50.890;8.054;2022-12-22T08:07:35;9.20;99.90
8953;DHT22;4511;50.890;8.054;2022-12-22T08:10:02;9.10;99.90
8953;DHT22;4511;50.890;8.054;2022-12-22T08:12:29;9.10;99.90
8953;DHT22;4511;50.890;8.054;2022-12-22T08:14:56;9.10;99.90
8953;DHT22;4511;50.890;8.054;2022-12-22T08:17:24;9.00;99.90
8953;DHT22;4511;50.890;8.054;2022-12-22T08:19:52;9.00;99.90
8953;DHT22;4511;50.890;8.054;2022-12-22T08:22:19;9.00;99.90
8953;DHT22;4511;50.890;8.054;2022-12-22T08:24:48;9.00;99.90
8953;DHT22;4511;50.890;8.054;2022-12-22T08:27:15;9.00;99.90
8953;DHT22;4511;50.890;8.054;2022-12-22T08:29:44;9.00;99.90
8953;DHT22;4511;50.890;8.054;2022-12-22T08:32:12;9.00;99.90
8953;DHT22;4511;50.890;8.054;2022-12-22T08:34:39;9.00;99.90
8953;DHT22;4511;50.890;8.054;2022-12-22T08:37:09;9.00;99.90
8953;DHT22;4511;50.890;8.054;2022-12-22T08:39:36;9.00;99.90
8953;DHT22;4511;50.890;8.054;2022-12-22T08:42:04;9.00;99.90
8953;DHT22;4511;50.890;8.054;2022-12-22T08:44:32;9.00;99.90
8953;DHT22;4511;50.890;8.054;2022-12-22T08:46:58;9.00;99.90
8953;DHT22;4511;50.890;8.054;2022-12-22T08:49:25;9.00;99.90
8953;DHT22;4511;50.890;8.054;2022-12-22T08:51:52;8.90;99.90
8953;DHT22;4511;50.890;8.054;2022-12-22T08:54:21;9.00;99.90
8953;DHT22;4511;50.890;8.054;2022-12-22T08:56:47;9.00;99.90
8953;DHT22;4511;50.890;8.054;2022-12-22T08:59:15;9.00;99.90
8953;DHT22;4511;50.890;8.054;2022-12-22T09:01:42;9.00;99.90
8953;DHT22;4511;50.890;8.054;2022-12-22T09:04:12;9.00;99.90
8953;DHT22;4511;50.890;8.054;2022-12-22T09:06:39;9.00;99.90
8953;DHT22;4511;50.890;8.054;2022-12-22T09:09:06;9.00;99.90
8953;DHT22;4511;50.890;8.054;2022-12-22T09:11:34;9.00;99.90
8953;DHT22;4511;50.890;8.054;2022-12-22T09:14:01;9.00;99.90
8953;DHT22;4511;50.890;8.054;2022-12-22T09:16:28;9.00;99.90
8953;DHT22;4511;50.890;8.054;2022-12-22T09:18:55;9.00;99.90
8953;DHT22;4511;50.890;8.054;2022-12-22T09:21:22;9.10;99.90
8953;DHT22;4511;50.890;8.054;2022-12-22T09:23:49;9.10;99.90
8953;DHT22;4511;50.890;8.054;2022-12-22T09:26:16;9.10;99.90
8953;DHT22;4511;50.890;8.054;2022-12-22T09:28:44;9.20;99.90
8953;DHT22;4511;50.890;8.054;2022-12-22T09:31:11;9.20;99.90
8953;DHT22;4511;50.890;8.054;2022-12-22T09:33:38;9.20;99.90
8953;DHT22;4511;50.890;8.054;2022-12-22T09:36:05;9.20;99.90
8953;DHT22;4511;50.890;8.054;2022-12-22T09:38:32;9.20;99.90
8953;DHT22;4511;50.890;8.054;2022-12-22T09:41:05;9.20;99.90
8953;DHT22;4511;50.890;8.054;2022-12-22T09:43:31;9.20;99.90
8953;DHT22;4511;50.890;8.054;2022-12-22T09:45:59;9.20;99.90
8953;DHT22;4511;50.890;8.054;2022-12-22T09:48:27;9.30;99.90
8953;DHT22;4511;50.890;8.054;2022-12-22T09:50:59;9.30;99.90
8953;DHT22;4511;50.890;8.054;2022-12-22T09:53:26;9.30;99.90
8953;DHT22;4511;50.890;8.054;2022-12-22T09:55:53;9.30;99.90
8953;DHT22;4511;50.890;8.054;2022-12-22T09:58:20;9.30;99.90
8953;DHT22;4511;50.890;8.054;2022-12-22T10:00:51;9.30;99.90
8953;DHT22;4511;50.890;8.054;2022-12-22T10:03:25;9.30;99.90
8953;DHT22;4511;50.890;8.054;2022-12-22T10:05:53;9.20;99.90
8953;DHT22;4511;50.890;8.054;2022-12-22T10:08:24;9.20;99.90
8953;DHT22;4511;50.890;8.054;2022-12-22T10:10:52;9.20;99.90
8953;DHT22;4511;50.890;8.054;2022-12-22T10:13:19;9.20;99.90
8953;DHT22;4511;50.890;8.054;2022-12-22T10:15:46;9.20;99.90
8953;DHT22;4511;50.890;8.054;2022-12-22T10:18:13;9.20;99.90
8953;DHT22;4511;50.890;8.054;2022-12-22T10:20:43;9.20;99.90
8953;DHT22;4511;50.890;8.054;2022-12-22T10:23:12;9.20;99.90
8953;DHT22;4511;50.890;8.054;2022-12-22T10:25:41;9.20;99.90
8953;DHT22;4511;50.890;8.054;2022-12-22T10:28:10;9.20;99.90
8953;DHT22;4511;50.890;8.054;2022-12-22T10:30:38;9.20;99.90
8953;DHT22;4511;50.890;8.054;2022-12-22T10:33:06;9.20;99.90
8953;DHT22;4511;50.890;8.054;2022-12-22T10:35:39;9.20;99.90
8953;DHT22;4511;50.890;8.054;2022-12-22T10:38:16;9.20;99.90
8953;DHT22;4511;50.890;8.054;2022-12-22T10:40:44;9.20;99.90
8953;DHT22;4511;50.890;8.054;2022-12-22T10:43:16;9.20;99.90
8953;DHT22;4511;50.890;8.054;2022-12-22T10:45:45;9.20;99.90
8953;DHT22;4511;50.890;8.054;2022-12-22T10:48:12;9.10;99.90
8953;DHT22;4511;50.890;8.054;2022-12-22T10:50:42;9.10;99.90
8953;DHT22;4511;50.890;8.054;2022-12-22T10:53:09;9.10;99.90
8953;DHT22;4511;50.890;8.054;2022-12-22T10:55:37;9.20;99.90
8953;DHT22;4511;50.890;8.054;2022-12-22T10:58:13;9.20;99.90
8953;DHT22;4511;50.890;8.054;2022-12-22T11:00:40;9.20;99.90
8953;DHT22;4511;50.890;8.054;2022-12-22T11:03:10;9.20;99.90
8953;DHT22;4511;50.890;8.054;2022-12-22T11:05:38;9.20;99.90
8953;DHT22;4511;50.890;8.054;2022-12-22T11:08:12;9.30;99.90
8953;DHT22;4511;50.890;8.054;2022-12-22T11:10:42;9.30;99.90
8953;DHT22;4511;50.890;8.054;2022-12-22T11:13:18;9.30;99.90
8953;DHT22;4511;50.890;8.054;2022-12-22T11:15:50;9.30;99.90
8953;DHT22;4511;50.890;8.054;2022-12-22T11:18:25;9.30;99.90
8953;DHT22;4511;50.890;8.054;2022-12-22T11:20:58;9.20;99.90
8953;DHT22;4511;50.890;8.054;2022-12-22T11:23:29;9.20;99.90
8953;DHT22;4511;50.890;8.054;2022-12-22T11:26:02;9.30;99.90
8953;DHT22;4511;50.890;8.054;2022-12-22T11:28:36;9.30;99.90
8953;DHT22;4511;50.890;8.054;2022-12-22T11:31:09;9.30;99.90
8953;DHT22;4511;50.890;8.054;2022-12-22T11:33:42;9.30;99.90
8953;DHT22;4511;50.890;8.054;2022-12-22T11:36:13;9.30;99.90
8953;DHT22;4511;50.890;8.054;2022-12-22T11:38:45;9.30;99.90
8953;DHT22;4511;50.890;8.054;2022-12-22T11:41:16;9.30;99.90
8953;DHT22;4511;50.890;8.054;2022-12-22T11:43:50;9.30;99.90
8953;DHT22;4511;50.890;8.054;2022-12-22T11:46:21;9.30;99.90
8953;DHT22;4511;50.890;8.054;2022-12-22T11:48:54;9.30;99.90
8953;DHT22;4511;50.890;8.054;2022-12-22T11:51:25;9.30;99.90
8953;DHT22;4511;50.890;8.054;2022-12-22T11:54:10;9.30;99.90
8953;DHT22;4511;50.890;8.054;2022-12-22T11:56:41;9.20;99.90
8953;DHT22;4511;50.890;8.054;2022-12-22T11:59:15;9.20;99.90
8953;DHT22;4511;50.890;8.054;2022-12-22T12:01:53;9.20;99.90
8953;DHT22;4511;50.890;8.054;2022-12-22T12:04:31;9.20;99.90
8953;DHT22;4511;50.890;8.054;2022-12-22T12:07:04;9.10;99.90
8953;DHT22;4511;50.890;8.054;2022-12-22T12:09:36;9.10;99.90
8953;DHT22;4511;50.890;8.054;2022-12-22T12:12:10;9.10;99.90
8953;DHT22;4511;50.890;8.054;2022-12-22T12:14:42;9.10;99.90
8953;DHT22;4511;50.890;8.054;2022-12-22T12:17:13;9.10;99.90
8953;DHT22;4511;50.890;8.054;2022-12-22T12:19:49;9.10;99.90
8953;DHT22;4511;50.890;8.054;2022-12-22T12:22:23;9.10;99.90
8953;DHT22;4511;50.890;8.054;2022-12-22T12:24:54;9.10;99.90
8953;DHT22;4511;50.890;8.054;2022-12-22T12:27:29;9.20;99.90
8953;DHT22;4511;50.890;8.054;2022-12-22T12:30:00;9.20;99.90
8953;DHT22;4511;50.890;8.054;2022-12-22T12:32:28;9.20;99.90
8953;DHT22;4511;50.890;8.054;2022-12-22T12:34:58;9.20;99.90
8953;DHT22;4511;50.890;8.054;2022-12-22T12:37:27;9.20;99.90
8953;DHT22;4511;50.890;8.054;2022-12-22T12:39:56;9.20;99.90
8953;DHT22;4511;50.890;8.054;2022-12-22T12:42:25;9.20;99.90
8953;DHT22;4511;50.890;8.054;2022-12-22T12:44:55;9.20;99.90
8953;DHT22;4511;50.890;8.054;2022-12-22T12:47:23;9.20;99.90
8953;DHT22;4511;50.890;8.054;2022-12-22T12:49:51;9.20;99.90
8953;DHT22;4511;50.890;8.054;2022-12-22T12:52:18;9.20;99.90
8953;DHT22;4511;50.890;8.054;2022-12-22T12:57:47;9.20;99.90
8953;DHT22;4511;50.890;8.054;2022-12-22T13:02:56;9.30;99.90
8953;DHT22;4511;50.890;8.054;2022-12-22T13:05:34;9.30;99.90
8953;DHT22;4511;50.890;8.054;2022-12-22T13:08:17;9.30;99.90
8953;DHT22;4511;50.890;8.054;2022-12-22T13:10:46;9.40;99.90
8953;DHT22;4511;50.890;8.054;2022-12-22T13:18:45;9.40;99.90
8953;DHT22;4511;50.890;8.054;2022-12-22T13:21:13;9.40;99.90
8953;DHT22;4511;50.890;8.054;2022-12-22T13:23:41;9.30;99.90
8953;DHT22;4511;50.890;8.054;2022-12-22T13:26:11;9.30;99.90
8953;DHT22;4511;50.890;8.054;2022-12-22T13:28:39;9.20;99.90
8953;DHT22;4511;50.890;8.054;2022-12-22T13:31:11;9.20;99.90
8953;DHT22;4511;50.890;8.054;2022-12-22T13:33:39;9.20;99.90
8953;DHT22;4511;50.890;8.054;2022-12-22T13:36:13;9.20;99.90
8953;DHT22;4511;50.890;8.054;2022-12-22T13:38:41;9.20;99.90
8953;DHT22;4511;50.890;8.054;2022-12-22T13:41:12;9.10;99.90
8953;DHT22;4511;50.890;8.054;2022-12-22T13:43:39;9.10;99.90
8953;DHT22;4511;50.890;8.054;2022-12-22T13:46:07;9.10;99.90
8953;DHT22;4511;50.890;8.054;2022-12-22T13:48:35;9.00;99.90
8953;DHT22;4511;50.890;8.054;2022-12-22T13:51:04;8.90;99.90
8953;DHT22;4511;50.890;8.054;2022-12-22T13:53:36;8.90;99.90
8953;DHT22;4511;50.890;8.054;2022-12-22T13:56:04;8.80;99.90
8953;DHT22;4511;50.890;8.054;2022-12-22T13:58:32;8.70;99.90
8953;DHT22;4511;50.890;8.054;2022-12-22T14:01:01;8.70;99.90
8953;DHT22;4511;50.890;8.054;2022-12-22T14:03:28;8.70;99.90
8953;DHT22;4511;50.890;8.054;2022-12-22T14:05:55;8.60;99.90
8953;DHT22;4511;50.890;8.054;2022-12-22T14:08:22;8.60;99.90
8953;DHT22;4511;50.890;8.054;2022-12-22T14:10:50;8.60;99.90
8953;DHT22;4511;50.890;8.054;2022-12-22T14:13:19;8.60;99.90
8953;DHT22;4511;50.890;8.054;2022-12-22T14:15:46;8.60;99.90
8953;DHT22;4511;50.890;8.054;2022-12-22T14:18:14;8.60;99.90
8953;DHT22;4511;50.890;8.054;2022-12-22T14:20:41;8.50;99.90
8953;DHT22;4511;50.890;8.054;2022-12-22T14:23:11;8.60;99.90
8953;DHT22;4511;50.890;8.054;2022-12-22T14:25:39;8.50;99.90
8953;DHT22;4511;50.890;8.054;2022-12-22T14:28:15;8.50;99.90
8953;DHT22;4511;50.890;8.054;2022-12-22T14:30:44;8.50;99.90
8953;DHT22;4511;50.890;8.054;2022-12-22T14:33:15;8.50;99.90
8953;DHT22;4511;50.890;8.054;2022-12-22T14:35:42;8.50;99.90
8953;DHT22;4511;50.890;8.054;2022-12-22T14:38:14;8.50;99.90
8953;DHT22;4511;50.890;8.054;2022-12-22T14:40:42;8.50;99.90
8953;DHT22;4511;50.890;8.054;2022-12-22T14:43:26;8.50;99.90
8953;DHT22;4511;50.890;8.054;2022-12-22T14:45:59;8.50;99.90
8953;DHT22;4511;50.890;8.054;2022-12-22T14:48:29;8.50;99.90
8953;DHT22;4511;50.890;8.054;2022-12-22T14:50:56;8.50;99.90
8953;DHT22;4511;50.890;8.054;2022-12-22T14:53:24;8.50;99.90
8953;DHT22;4511;50.890;8.054;2022-12-22T14:55:51;8.40;99.90
8953;DHT22;4511;50.890;8.054;2022-12-22T14:58:20;8.40;99.90
8953;DHT22;4511;50.890;8.054;2022-12-22T15:00:48;8.30;99.90
8953;DHT22;4511;50.890;8.054;2022-12-22T15:03:35;8.20;99.90
8953;DHT22;4511;50.890;8.054;2022-12-22T15:08:43;8.10;99.90
8953;DHT22;4511;50.890;8.054;2022-12-22T15:11:10;8.10;99.90
8953;DHT22;4511;50.890;8.054;2022-12-22T15:13:39;8.10;99.90
8953;DHT22;4511;50.890;8.054;2022-12-22T15:16:07;8.10;99.90
8953;DHT22;4511;50.890;8.054;2022-12-22T15:18:35;8.10;99.90
8953;DHT22;4511;50.890;8.054;2022-12-22T15:21:03;8.00;99.90
8953;DHT22;4511;50.890;8.054;2022-12-22T15:23:30;8.00;99.90
8953;DHT22;4511;50.890;8.054;2022-12-22T15:25:56;8.00;99.90
8953;DHT22;4511;50.890;8.054;2022-12-22T15:28:23;8.00;99.90
8953;DHT22;4511;50.890;8.054;2022-12-22T15:30:51;8.00;99.90
8953;DHT22;4511;50.890;8.054;2022-12-22T15:33:18;8.00;99.90
8953;DHT22;4511;50.890;8.054;2022-12-22T15:35:44;8.00;99.90
8953;DHT22;4511;50.890;8.054;2022-12-22T15:38:11;8.00;99.90
8953;DHT22;4511;50.890;8.054;2022-12-22T15:40:38;8.00;99.90
8953;DHT22;4511;50.890;8.054;2022-12-22T15:43:05;8.00;99.90
8953;DHT22;4511;50.890;8.054;2022-12-22T15:45:32;8.00;99.90
8953;DHT22;4511;50.890;8.054;2022-12-22T15:48:02;8.00;99.90
8953;DHT22;4511;50.890;8.054;2022-12-22T15:50:30;8.00;99.90
8953;DHT22;4511;50.890;8.054;2022-12-22T15:52:57;8.00;99.90
8953;DHT22;4511;50.890;8.054;2022-12-22T15:55:25;7.90;99.90
8953;DHT22;4511;50.890;8.054;2022-12-22T15:57:52;7.90;99.90
8953;DHT22;4511;50.890;8.054;2022-12-22T16:00:21;7.90;99.90
8953;DHT22;4511;50.890;8.054;2022-12-22T16:02:47;7.90;99.90
8953;DHT22;4511;50.890;8.054;2022-12-22T16:05:16;7.80;99.90
8953;DHT22;4511;50.890;8.054;2022-12-22T16:07:43;7.80;99.90
8953;DHT22;4511;50.890;8.054;2022-12-22T16:10:17;7.80;99.90
8953;DHT22;4511;50.890;8.054;2022-12-22T16:12:46;7.80;99.90
8953;DHT22;4511;50.890;8.054;2022-12-22T16:15:19;7.70;99.90
8953;DHT22;4511;50.890;8.054;2022-12-22T16:17:46;7.70;99.90
8953;DHT22;4511;50.890;8.054;2022-12-22T16:20:12;7.70;99.90
8953;DHT22;4511;50.890;8.054;2022-12-22T16:22:40;7.70;99.90
8953;DHT22;4511;50.890;8.054;2022-12-22T16:25:11;7.70;99.90
8953;DHT22;4511;50.890;8.054;2022-12-22T16:27:38;7.70;99.90
8953;DHT22;4511;50.890;8.054;2022-12-22T16:30:05;7.70;99.90
8953;DHT22;4511;50.890;8.054;2022-12-22T16:32:32;7.70;99.90
8953;DHT22;4511;50.890;8.054;2022-12-22T16:35:00;7.70;99.90
8953;DHT22;4511;50.890;8.054;2022-12-22T16:37:32;7.70;99.90
8953;DHT22;4511;50.890;8.054;2022-12-22T16:40:00;7.70;99.90
8953;DHT22;4511;50.890;8.054;2022-12-22T16:42:27;7.70;99.90
8953;DHT22;4511;50.890;8.054;2022-12-22T16:44:54;7.70;99.90
8953;DHT22;4511;50.890;8.054;2022-12-22T16:47:21;7.80;99.90
8953;DHT22;4511;50.890;8.054;2022-12-22T16:49:49;7.80;99.90
8953;DHT22;4511;50.890;8.054;2022-12-22T16:52:17;7.80;99.90
8953;DHT22;4511;50.890;8.054;2022-12-22T16:54:44;7.80;99.90
8953;DHT22;4511;50.890;8.054;2022-12-22T16:57:12;7.70;99.90
8953;DHT22;4511;50.890;8.054;2022-12-22T16:59:39;7.70;99.90